Time;durP1;ratioP1;P1;durP2;ratioP2;P2;SDS_P1;SDS_P2;PMS_P1;PMS_P2;Temp;Humidity;BMP_temperature;BMP_pressure;BME280_temperature;BME280_humidity;BME280_pressure;Samples;Min_cycle;Max_cycle;Signal;HPM_P1;HPM_P2
2021/08/30 09:23:28;;;;;;;28.58;20.48;;;16.40;99.90;;;;;;5070757;28;20891;-77
2021/08/30 09:25:59;;;;;;;32.72;22.27;;;16.50;99.90;;;;;;5069446;28;20614;-76
2021/08/30 09:28:33;;;;;;;33.60;20.90;;;16.50;99.90;;;;;;5069382;28;20637;-76
2021/08/30 09:31:00;;;;;;;28.25;21.60;;;16.60;99.90;;;;;;5070654;28;20195;-77
2021/08/30 09:33:25;;;;;;;28.52;19.85;;;16.60;99.90;;;;;;5070539;28;20169;-77
2021/08/30 09:35:59;;;;;;;28.65;20.10;;;16.50;99.90;;;;;;5070523;28;20218;-77
2021/08/30 09:38:27;;;;;;;25.67;19.02;;;16.50;99.90;;;;;;5069200;28;20637;-77
2021/08/30 09:41:09;;;;;;;28.90;19.08;;;16.70;99.90;;;;;;5069127;28;20215;-76
2021/08/30 09:43:35;;;;;;;32.55;20.48;;;16.70;99.90;;;;;;5070162;28;20208;-77
2021/08/30 09:46:02;;;;;;;28.40;21.23;;;16.70;99.90;;;;;;5070306;28;20286;-75
2021/08/30 09:48:30;;;;;;;26.58;19.15;;;16.80;99.90;;;;;;5070242;28;20169;-74
2021/08/30 09:51:02;;;;;;;25.38;19.55;;;16.70;99.90;;;;;;5070181;28;20165;-74
2021/08/30 09:53:32;;;;;;;25.90;19.67;;;16.80;99.90;;;;;;5070004;28;20681;-75
2021/08/30 09:55:59;;;;;;;26.88;19.23;;;16.90;99.90;;;;;;5070075;28;20172;-75
2021/08/30 09:58:29;;;;;;;24.85;18.40;;;17.00;99.90;;;;;;5070092;28;20562;-74
2021/08/30 10:01:00;;;;;;;27.08;18.90;;;17.10;99.90;;;;;;5068619;28;20173;-75
2021/08/30 10:03:31;;;;;;;26.15;18.25;;;17.30;99.90;;;;;;5069911;28;20164;-75
2021/08/30 10:05:57;;;;;;;26.58;17.55;;;17.50;99.90;;;;;;5069844;28;20167;-74
2021/08/30 10:08:24;;;;;;;23.67;16.27;;;17.60;99.90;;;;;;5068579;28;20234;-75
2021/08/30 10:10:50;;;;;;;22.25;17.75;;;17.60;99.90;;;;;;5069882;28;20171;-74
2021/08/30 10:13:19;;;;;;;17.08;14.98;;;17.60;99.90;;;;;;5069749;28;20165;-74
2021/08/30 10:15:49;;;;;;;23.20;16.65;;;17.50;99.90;;;;;;5069652;28;20182;-74
2021/08/30 10:18:20;;;;;;;23.25;17.60;;;17.40;99.90;;;;;;5069625;28;20512;-74
2021/08/30 10:20:49;;;;;;;23.85;17.13;;;17.30;99.90;;;;;;5068228;28;20222;-74
2021/08/30 10:23:16;;;;;;;20.05;16.55;;;17.20;99.90;;;;;;5069275;28;20307;-74
2021/08/30 10:25:54;;;;;;;23.75;18.02;;;17.00;99.90;;;;;;5069420;28;20164;-74
2021/08/30 10:28:19;;;;;;;19.80;16.13;;;16.90;99.90;;;;;;5069441;28;20251;-73
2021/08/30 10:34:07;;;;;;;21.25;15.30;;;16.70;99.90;;;;;;5059687;28;20176;-73
2021/08/30 10:36:32;;;;;;;21.85;15.55;;;16.70;99.90;;;;;;5056003;28;20607;-74
2021/08/30 10:39:07;;;;;;;21.90;15.93;;;16.80;99.90;;;;;;5056045;28;20524;-74
2021/08/30 10:41:38;;;;;;;23.45;16.27;;;16.90;99.90;;;;;;5055779;28;20192;-74
2021/08/30 10:44:14;;;;;;;22.70;15.70;;;17.00;99.90;;;;;;5055907;28;20541;-74
2021/08/30 10:46:50;;;;;;;20.35;15.38;;;17.10;99.90;;;;;;5055936;28;20171;-74
2021/08/30 10:49:20;;;;;;;19.92;14.30;;;17.10;99.90;;;;;;5055873;28;20527;-74
2021/08/30 10:51:48;;;;;;;17.08;13.88;;;17.30;99.90;;;;;;5055768;28;20637;-74
2021/08/30 10:57:39;;;;;;;19.40;14.20;;;17.60;99.90;;;;;;5055763;28;20172;-74
2021/08/30 11:00:08;;;;;;;15.95;13.45;;;17.60;99.90;;;;;;5055646;28;20187;-74
2021/08/30 11:02:45;;;;;;;15.10;13.50;;;17.60;99.90;;;;;;5055508;28;20211;-74
2021/08/30 11:05:11;;;;;;;14.73;12.32;;;17.50;99.90;;;;;;5055551;28;20236;-74
2021/08/30 11:07:37;;;;;;;15.95;11.60;;;17.40;99.90;;;;;;5055512;28;20541;-74
2021/08/30 11:10:07;;;;;;;14.25;12.63;;;17.30;99.90;;;;;;5055450;28;20245;-74
2021/08/30 11:12:33;;;;;;;15.13;12.20;;;17.30;99.90;;;;;;5055406;28;20179;-74
2021/08/30 11:14:59;;;;;;;14.38;12.27;;;17.30;99.90;;;;;;5055321;28;20532;-74
2021/08/30 11:17:29;;;;;;;17.40;13.75;;;17.30;99.90;;;;;;5055334;28;20173;-74
2021/08/30 11:19:56;;;;;;;15.90;14.20;;;17.40;99.90;;;;;;5055370;28;20177;-75
2021/08/30 11:22:21;;;;;;;16.98;13.93;;;17.60;99.90;;;;;;5054997;28;20238;-74
2021/08/30 11:24:47;;;;;;;14.23;11.88;;;17.80;99.90;;;;;;5055166;28;20165;-74
2021/08/30 11:27:27;;;;;;;17.75;12.02;;;18.00;99.90;;;;;;5055018;28;20526;-74
2021/08/30 11:29:58;;;;;;;22.10;11.68;;;18.20;99.90;;;;;;5055174;28;20172;-75
2021/08/30 11:32:30;;;;;;;14.63;13.05;;;18.30;99.90;;;;;;5055089;28;20180;-75
2021/08/30 11:34:56;;;;;;;13.55;11.65;;;18.30;99.90;;;;;;5055017;28;20172;-75
2021/08/30 11:37:24;;;;;;;13.00;11.70;;;18.40;99.90;;;;;;5054971;28;20164;-75
2021/08/30 11:39:51;;;;;;;13.27;11.88;;;18.40;99.90;;;;;;5054868;28;20168;-74
2021/08/30 11:42:22;;;;;;;14.10;11.50;;;18.40;99.90;;;;;;5054750;28;20228;-74
2021/08/30 11:44:48;;;;;;;13.38;11.38;;;18.40;99.90;;;;;;5053857;28;20188;-74
2021/08/30 11:47:16;;;;;;;12.93;10.65;;;18.20;99.90;;;;;;5054660;28;20529;-74
2021/08/30 11:49:49;;;;;;;14.50;10.20;;;18.10;99.90;;;;;;5054672;28;20180;-74
2021/08/30 11:52:23;;;;;;;12.63;11.43;;;17.90;99.90;;;;;;5054547;28;20168;-74
2021/08/30 11:54:58;;;;;;;11.75;10.55;;;17.90;99.90;;;;;;5054580;28;20578;-74
2021/08/30 11:57:25;;;;;;;12.55;10.10;;;18.00;99.90;;;;;;5053274;28;20172;-74
2021/08/30 11:59:52;;;;;;;10.80;9.77;;;18.20;99.90;;;;;;5054490;28;20180;-74
2021/08/30 12:02:20;;;;;;;11.68;10.38;;;18.60;99.90;;;;;;5054364;28;20299;-74
2021/08/30 12:04:47;;;;;;;12.02;9.75;;;18.40;99.90;;;;;;5053089;28;20199;-74
2021/08/30 12:07:15;;;;;;;11.45;10.35;;;18.50;99.90;;;;;;5054310;28;20195;-74
2021/08/30 12:09:43;;;;;;;11.48;10.18;;;18.50;99.90;;;;;;5054329;28;20172;-74
2021/08/30 12:12:19;;;;;;;11.32;10.27;;;18.60;99.90;;;;;;5052966;28;20177;-74
2021/08/30 12:15:13;;;;;;;12.30;10.40;;;18.50;99.90;;;;;;5054249;28;20547;-74
2021/08/30 12:17:50;;;;;;;15.00;10.13;;;18.40;99.90;;;;;;5054201;28;20271;-74
2021/08/30 12:20:18;;;;;;;11.93;10.52;;;18.40;99.90;;;;;;5054118;28;20234;-73
2021/08/30 12:22:50;;;;;;;11.88;9.75;;;18.30;99.90;;;;;;5053798;28;20229;-73
2021/08/30 12:25:15;;;;;;;10.50;9.32;;;18.30;99.90;;;;;;5052761;28;20176;-74
2021/08/30 12:27:43;;;;;;;11.77;10.18;;;18.40;99.90;;;;;;5053953;28;20164;-74
2021/08/30 12:30:09;;;;;;;11.07;9.45;;;18.50;99.90;;;;;;5052643;28;20237;-74
2021/08/30 12:32:50;;;;;;;10.10;9.25;;;18.60;99.90;;;;;;5052654;28;20172;-74
2021/08/30 12:35:20;;;;;;;11.70;10.10;;;18.70;99.90;;;;;;5053731;28;20694;-74
2021/08/30 12:37:48;;;;;;;9.88;9.07;;;18.70;99.90;;;;;;5053644;28;20172;-74
2021/08/30 12:40:16;;;;;;;10.02;9.13;;;18.70;99.90;;;;;;5053595;28;20317;-74
2021/08/30 12:42:42;;;;;;;10.82;9.82;;;18.40;99.90;;;;;;5053582;28;20249;-74
2021/08/30 12:45:07;;;;;;;14.38;9.70;;;18.40;99.90;;;;;;5053658;28;20260;-74
2021/08/30 12:47:33;;;;;;;13.23;9.70;;;18.30;99.90;;;;;;5053591;28;20160;-74
2021/08/30 12:49:59;;;;;;;11.05;9.27;;;18.10;99.90;;;;;;5053581;28;20684;-74
2021/08/30 12:52:24;;;;;;;11.32;10.20;;;17.90;99.90;;;;;;5053500;28;20184;-74
2021/08/30 12:54:50;;;;;;;13.23;10.00;;;18.60;99.90;;;;;;5053461;28;20530;-74
2021/08/30 12:57:15;;;;;;;11.38;9.57;;;17.80;99.90;;;;;;5053236;28;20626;-74
2021/08/30 12:59:41;;;;;;;13.15;8.73;;;17.80;99.90;;;;;;5052164;28;20168;-74
2021/08/30 13:02:07;;;;;;;10.40;8.40;;;17.90;99.90;;;;;;5053269;28;20180;-74
2021/08/30 13:04:33;;;;;;;10.32;9.43;;;18.00;99.90;;;;;;5053329;28;20168;-74
2021/08/30 13:06:58;;;;;;;10.60;9.50;;;18.00;99.90;;;;;;5053320;28;20689;-74
2021/08/30 13:09:24;;;;;;;11.32;9.25;;;18.20;99.90;;;;;;5053226;28;20199;-74
2021/08/30 13:11:50;;;;;;;11.57;8.23;;;18.40;99.90;;;;;;5053196;28;20525;-74
2021/08/30 13:14:15;;;;;;;11.18;9.32;;;18.60;99.90;;;;;;5053395;28;20526;-73
2021/08/30 13:16:41;;;;;;;18.42;9.20;;;18.70;99.90;;;;;;5053262;28;20168;-74
2021/08/30 13:19:06;;;;;;;9.10;8.40;;;18.70;99.90;;;;;;5051871;28;20695;-74
2021/08/30 13:21:32;;;;;;;9.60;8.57;;;18.70;99.90;;;;;;5052931;28;20571;-73
2021/08/30 13:23:57;;;;;;;10.45;9.40;;;18.70;99.90;;;;;;5053120;28;20171;-74
2021/08/30 13:26:23;;;;;;;10.48;8.80;;;18.70;99.90;;;;;;5053111;28;20240;-74
2021/08/30 13:28:48;;;;;;;9.40;8.15;;;18.80;99.90;;;;;;5053171;28;20172;-74
2021/08/30 13:31:16;;;;;;;8.73;7.80;;;18.90;99.90;;;;;;5053076;28;20183;-74
2021/08/30 13:33:41;;;;;;;8.75;7.85;;;18.90;99.90;;;;;;5053150;28;20161;-74
2021/08/30 13:36:08;;;;;;;8.07;7.38;;;18.90;99.90;;;;;;5053038;28;20218;-74
2021/08/30 13:38:34;;;;;;;7.97;7.22;;;19.00;99.90;;;;;;5051803;28;20537;-73
2021/08/30 13:41:00;;;;;;;9.95;8.10;;;18.90;99.90;;;;;;5053190;28;20169;-74
2021/08/30 13:43:25;;;;;;;8.70;7.90;;;18.80;99.90;;;;;;5052855;28;20309;-74
2021/08/30 13:45:51;;;;;;;8.65;8.02;;;18.70;99.90;;;;;;5052938;28;20165;-74
2021/08/30 13:48:16;;;;;;;13.35;8.80;;;18.50;99.90;;;;;;5052936;28;20522;-73
2021/08/30 13:50:42;;;;;;;9.30;8.40;;;18.40;99.90;;;;;;5052889;28;20164;-74
2021/08/30 13:53:09;;;;;;;9.93;8.35;;;18.30;99.90;;;;;;5052855;28;20169;-73
2021/08/30 13:55:34;;;;;;;8.75;7.78;;;18.30;99.90;;;;;;5052882;28;20707;-74
2021/08/30 13:58:00;;;;;;;9.95;8.25;;;18.30;99.90;;;;;;5052803;28;20256;-74
2021/08/30 14:00:26;;;;;;;8.00;7.20;;;18.20;99.90;;;;;;5051493;28;20177;-74
2021/08/30 14:02:52;;;;;;;8.82;7.93;;;18.20;99.90;;;;;;5052702;28;20208;-74
2021/08/30 14:05:17;;;;;;;9.05;7.30;;;18.20;99.90;;;;;;5052830;28;20169;-74
2021/08/30 14:07:43;;;;;;;8.18;7.47;;;18.30;99.90;;;;;;5052784;28;20169;-73
2021/08/30 14:10:10;;;;;;;7.85;7.05;;;18.30;99.90;;;;;;5055118;28;20676;-73
2021/08/30 14:12:36;;;;;;;8.30;6.50;;;18.40;99.90;;;;;;5056466;28;20223;-73
2021/08/30 14:15:04;;;;;;;7.80;6.75;;;18.40;99.90;;;;;;5056786;28;20226;-73
2021/08/30 14:17:30;;;;;;;9.88;7.13;;;18.40;99.90;;;;;;5056578;28;20183;-73
2021/08/30 14:19:55;;;;;;;7.07;6.47;;;18.30;99.90;;;;;;5055587;28;20533;-74
2021/08/30 14:22:21;;;;;;;7.63;6.75;;;18.30;99.90;;;;;;5056878;28;20273;-73
2021/08/30 14:24:47;;;;;;;7.30;6.53;;;18.20;99.90;;;;;;5056636;28;20200;-73
2021/08/30 14:27:16;;;;;;;6.95;6.40;;;18.30;99.90;;;;;;5055432;28;20177;-74
2021/08/30 14:29:42;;;;;;;7.85;7.22;;;18.10;99.90;;;;;;5056486;28;20161;-73
2021/08/30 14:32:08;;;;;;;8.50;7.60;;;18.10;99.90;;;;;;5056552;28;20180;-73
2021/08/30 14:34:34;;;;;;;7.95;7.18;;;18.10;99.90;;;;;;5055226;28;20532;-74
2021/08/30 14:36:59;;;;;;;8.38;7.25;;;18.00;99.90;;;;;;5056422;28;20172;-73
2021/08/30 14:39:25;;;;;;;6.97;6.47;;;18.00;99.90;;;;;;5056352;28;20199;-74
2021/08/30 14:41:51;;;;;;;16.55;7.57;;;18.00;99.90;;;;;;5056168;28;20593;-73
2021/08/30 14:44:17;;;;;;;6.72;6.05;;;18.00;99.90;;;;;;5055011;28;20254;-73
2021/08/30 14:46:42;;;;;;;10.68;7.35;;;18.10;99.90;;;;;;5056268;28;20192;-74
2021/08/30 14:49:09;;;;;;;6.55;6.05;;;18.00;99.90;;;;;;5056296;28;20165;-74
2021/08/30 14:51:38;;;;;;;7.03;6.47;;;18.20;99.90;;;;;;5056109;28;20679;-74
2021/08/30 14:54:03;;;;;;;7.43;6.70;;;18.20;99.90;;;;;;5055900;28;20252;-74
2021/08/30 14:56:29;;;;;;;8.00;7.30;;;18.20;99.90;;;;;;5055624;28;20311;-74
2021/08/30 14:58:55;;;;;;;7.60;6.78;;;18.20;99.90;;;;;;5055585;28;20177;-73
2021/08/30 15:01:20;;;;;;;7.10;6.40;;;18.20;99.90;;;;;;5055504;28;20657;-74
2021/08/30 15:03:46;;;;;;;7.45;6.72;;;18.20;99.90;;;;;;5055533;28;20580;-73
2021/08/30 15:06:11;;;;;;;7.20;6.30;;;18.20;99.90;;;;;;5054230;28;20188;-73
2021/08/30 15:08:37;;;;;;;9.32;7.00;;;18.20;99.90;;;;;;5055482;28;20193;-74
2021/08/30 15:11:08;;;;;;;7.78;7.03;;;18.20;99.90;;;;;;5055446;28;20171;-74
2021/08/30 15:13:34;;;;;;;9.10;6.13;;;18.20;99.90;;;;;;5055436;28;20247;-74
2021/08/30 15:16:00;;;;;;;7.45;6.88;;;18.20;99.90;;;;;;5055340;28;20179;-74
2021/08/30 15:18:25;;;;;;;8.35;7.72;;;18.20;99.90;;;;;;5054997;28;20172;-74
2021/08/30 15:20:51;;;;;;;7.63;6.85;;;18.20;99.90;;;;;;5055099;28;20189;-73
2021/08/30 15:23:17;;;;;;;7.40;6.82;;;18.20;99.90;;;;;;5054955;28;20262;-74
2021/08/30 15:25:43;;;;;;;7.53;6.93;;;18.30;99.90;;;;;;5053953;28;20160;-74
2021/08/30 15:28:10;;;;;;;7.28;6.70;;;18.40;99.90;;;;;;5055104;28;20191;-74
2021/08/30 15:30:36;;;;;;;7.22;6.63;;;18.50;99.90;;;;;;5055135;28;20165;-74
2021/08/30 15:33:02;;;;;;;7.25;6.65;;;18.70;99.90;;;;;;5055149;28;20211;-73
2021/08/30 15:35:27;;;;;;;8.45;7.10;;;18.90;99.90;;;;;;5055067;28;20172;-73
2021/08/30 15:37:53;;;;;;;7.53;6.90;;;19.20;99.90;;;;;;5054926;28;20176;-73
2021/08/30 15:40:19;;;;;;;8.13;6.35;;;19.40;99.90;;;;;;5054921;28;20176;-73
2021/08/30 15:42:48;;;;;;;7.55;6.85;;;19.60;99.90;;;;;;5054735;28;20238;-73
2021/08/30 15:45:14;;;;;;;7.60;6.90;;;19.70;99.90;;;;;;5054813;28;20179;-73
2021/08/30 15:47:41;;;;;;;9.60;7.53;;;19.70;99.90;;;;;;5054643;28;20509;-73
2021/08/30 15:50:08;;;;;;;12.43;6.95;;;19.50;99.90;;;;;;5054680;28;20580;-73
2021/08/30 15:52:38;;;;;;;8.63;7.60;;;19.20;99.90;;;;;;5053359;28;20652;-73
2021/08/30 15:55:05;;;;;;;9.63;7.30;;;18.90;99.90;;;;;;5054606;28;20686;-73
2021/08/30 15:57:30;;;;;;;7.70;7.10;;;18.70;99.90;;;;;;5054490;28;20180;-73
2021/08/30 15:59:56;;;;;;;8.02;6.90;;;18.60;99.90;;;;;;5054515;28;20165;-73
2021/08/30 16:02:22;;;;;;;9.15;8.25;;;18.50;99.90;;;;;;5054354;28;20188;-73
2021/08/30 16:04:47;;;;;;;8.15;7.55;;;18.40;99.90;;;;;;5054387;28;20186;-73
2021/08/30 16:07:13;;;;;;;8.27;7.45;;;18.30;99.90;;;;;;5053091;28;20291;-73
2021/08/30 16:09:39;;;;;;;8.13;7.47;;;18.30;99.90;;;;;;5054328;28;20199;-73
2021/08/30 16:12:05;;;;;;;8.63;7.72;;;18.30;99.90;;;;;;5054331;28;20626;-73
2021/08/30 16:14:35;;;;;;;9.30;7.38;;;18.40;99.90;;;;;;5054253;28;20168;-73
2021/08/30 16:17:01;;;;;;;9.63;7.32;;;18.60;99.90;;;;;;5054148;28;20188;-74
2021/08/30 16:19:27;;;;;;;7.15;6.57;;;18.80;99.90;;;;;;5054101;28;20173;-73
2021/08/30 16:21:52;;;;;;;7.28;6.68;;;19.00;99.90;;;;;;5053847;28;20643;-74
2021/08/30 16:24:18;;;;;;;6.95;6.38;;;19.20;99.90;;;;;;5054029;28;20165;-73
2021/08/30 16:26:44;;;;;;;7.95;6.38;;;19.40;99.90;;;;;;5053928;28;20183;-73
2021/08/30 16:29:09;;;;;;;7.15;6.55;;;19.60;99.90;;;;;;5053842;28;20179;-73
2021/08/30 16:31:35;;;;;;;7.45;6.75;;;19.60;99.90;;;;;;5053377;28;20472;-73
2021/08/30 16:34:00;;;;;;;7.05;6.50;;;19.60;99.90;;;;;;5052587;28;20226;-73
2021/08/30 16:36:27;;;;;;;9.10;6.55;;;19.50;99.90;;;;;;5053830;28;20164;-73
2021/08/30 16:38:54;;;;;;;8.38;7.68;;;19.50;99.90;;;;;;5053957;28;20200;-73
2021/08/30 16:41:23;;;;;;;9.45;6.95;;;19.50;99.90;;;;;;5053610;28;20499;-73
2021/08/30 16:43:49;;;;;;;7.60;6.90;;;19.40;99.90;;;;;;5053621;28;20689;-73
2021/08/30 16:46:15;;;;;;;7.72;7.03;;;19.50;99.90;;;;;;5052375;28;20172;-73
2021/08/30 16:48:42;;;;;;;7.47;6.88;;;19.40;99.90;;;;;;5053552;28;20168;-73
2021/08/30 16:51:08;;;;;;;7.05;6.32;;;19.40;99.90;;;;;;5053572;28;20164;-73
2021/08/30 16:53:33;;;;;;;6.82;6.22;;;19.50;99.90;;;;;;5053559;28;20164;-73
2021/08/30 16:55:59;;;;;;;7.22;6.63;;;19.60;99.90;;;;;;5053454;28;20223;-73
2021/08/30 16:58:25;;;;;;;7.53;6.93;;;19.60;99.90;;;;;;5053458;28;20168;-73
2021/08/30 17:00:51;;;;;;;6.43;5.93;;;19.60;99.90;;;;;;5052124;28;20176;-73
2021/08/30 17:03:16;;;;;;;7.10;6.60;;;19.60;99.90;;;;;;5053105;28;20196;-73
2021/08/30 17:05:42;;;;;;;7.35;6.78;;;19.60;99.90;;;;;;5053214;28;20303;-73
2021/08/30 17:08:07;;;;;;;9.15;6.38;;;19.60;99.90;;;;;;5053378;28;20161;-73
2021/08/30 17:10:33;;;;;;;6.43;6.03;;;19.70;99.90;;;;;;5053397;28;20504;-73
2021/08/30 17:12:59;;;;;;;7.03;6.53;;;19.80;99.90;;;;;;5053230;28;20168;-73
2021/08/30 17:15:24;;;;;;;7.60;6.28;;;19.80;99.90;;;;;;5053312;28;20173;-73
2021/08/30 17:17:50;;;;;;;7.53;6.50;;;19.90;99.90;;;;;;5053186;28;20173;-73
2021/08/30 17:20:15;;;;;;;7.10;6.60;;;19.90;99.90;;;;;;5051847;28;20172;-73
2021/08/30 17:22:42;;;;;;;9.80;6.47;;;19.80;99.90;;;;;;5052921;28;20220;-73
2021/08/30 17:25:08;;;;;;;7.25;6.75;;;19.70;99.90;;;;;;5053171;28;20192;-73
2021/08/30 17:27:34;;;;;;;6.25;5.75;;;19.60;99.90;;;;;;5053167;28;20222;-73
2021/08/30 17:30:00;;;;;;;6.82;6.32;;;19.40;99.90;;;;;;5051890;28;20622;-73
2021/08/30 17:32:26;;;;;;;7.32;6.82;;;19.30;99.90;;;;;;5053083;28;20176;-73
2021/08/30 17:34:52;;;;;;;7.65;6.85;;;19.30;99.90;;;;;;5053040;28;20729;-73
2021/08/30 17:37:18;;;;;;;8.75;7.97;;;19.20;99.90;;;;;;5053061;28;20199;-73
2021/08/30 17:39:43;;;;;;;8.32;7.10;;;19.00;99.90;;;;;;5053092;28;20657;-73
2021/08/30 17:42:09;;;;;;;8.82;6.85;;;18.80;99.90;;;;;;5052901;28;20185;-73
2021/08/30 17:44:35;;;;;;;8.43;7.55;;;18.70;99.90;;;;;;5055828;28;20168;-73
2021/08/30 17:47:00;;;;;;;11.13;10.07;;;18.50;99.90;;;;;;5056979;28;20515;-73
2021/08/30 17:49:27;;;;;;;8.38;7.07;;;18.40;99.90;;;;;;5056915;28;20169;-73
2021/08/30 17:51:53;;;;;;;8.25;7.55;;;18.20;99.90;;;;;;5057057;28;20165;-73
2021/08/30 17:54:19;;;;;;;8.32;7.63;;;18.10;99.90;;;;;;5056861;28;20173;-73
2021/08/30 17:56:44;;;;;;;8.57;7.88;;;18.00;99.90;;;;;;5056756;28;20284;-73
2021/08/30 17:59:10;;;;;;;8.82;8.05;;;17.90;99.90;;;;;;5056765;28;20184;-73
2021/08/30 18:01:35;;;;;;;7.95;7.32;;;17.80;99.90;;;;;;5056704;28;20665;-73
2021/08/30 18:04:01;;;;;;;9.98;7.65;;;17.70;99.90;;;;;;5056719;28;20551;-73
2021/08/30 18:06:27;;;;;;;12.68;8.20;;;17.50;99.90;;;;;;5056552;28;20622;-73
2021/08/30 18:08:52;;;;;;;9.48;7.55;;;17.40;99.90;;;;;;5056525;28;20626;-73
2021/08/30 18:11:18;;;;;;;8.68;7.90;;;17.40;99.90;;;;;;5056373;28;20176;-73
2021/08/30 18:13:44;;;;;;;10.25;8.40;;;17.30;99.90;;;;;;5055157;28;20227;-73
2021/08/30 18:16:10;;;;;;;9.50;8.50;;;17.20;99.90;;;;;;5056332;28;20165;-73
